Time;durP1;ratioP1;P1;durP2;ratioP2;P2;SDS_P1;SDS_P2;PMS_P1;PMS_P2;Temp;Humidity;BMP_temperature;BMP_pressure;BME280_temperature;BME280_humidity;BME280_pressure;Samples;Min_cycle;Max_cycle;Signal;HPM_P1;HPM_P2
2022/10/16 00:00:45;;;;;;;1.70;1.60;;;14.20;99.90;;;;;;4995566;28;20208;-73
2022/10/16 00:03:11;;;;;;;2.10;1.90;;;14.10;99.90;;;;;;4986238;28;20418;-73
2022/10/16 00:05:42;;;;;;;2.50;1.60;;;14.10;99.90;;;;;;4976594;28;20431;-73
2022/10/16 00:08:09;;;;;;;1.70;1.47;;;14.10;99.90;;;;;;4975702;28;20777;-73
2022/10/16 00:10:35;;;;;;;3.00;1.30;;;14.10;99.90;;;;;;4975831;28;20432;-73
2022/10/16 00:13:00;;;;;;;3.40;1.87;;;14.10;99.90;;;;;;4975941;28;20408;-74
2022/10/16 00:15:26;;;;;;;2.47;1.67;;;14.10;99.90;;;;;;4991861;28;20793;-73
2022/10/16 00:17:52;;;;;;;1.70;1.23;;;14.00;99.90;;;;;;4995299;28;20204;-74
2022/10/16 00:20:17;;;;;;;1.40;1.13;;;14.00;99.90;;;;;;4995406;28;20247;-72
2022/10/16 00:22:43;;;;;;;2.87;1.80;;;14.00;99.90;;;;;;4995176;28;20183;-74
2022/10/16 00:25:08;;;;;;;4.20;1.83;;;14.00;99.90;;;;;;4995060;28;20180;-74
2022/10/16 00:27:34;;;;;;;2.20;1.20;;;14.00;99.90;;;;;;4977896;28;20201;-73
2022/10/16 00:30:00;;;;;;;5.03;1.40;;;13.90;99.90;;;;;;4975725;28;20636;-73
2022/10/16 00:32:25;;;;;;;1.70;1.40;;;13.90;99.90;;;;;;4975584;28;20536;-75
2022/10/16 00:34:51;;;;;;;1.87;1.30;;;13.80;99.90;;;;;;4976299;28;20223;-73
2022/10/16 00:37:16;;;;;;;1.77;1.37;;;13.80;99.90;;;;;;4974092;28;20209;-73
2022/10/16 00:39:42;;;;;;;2.43;1.60;;;13.80;99.90;;;;;;4975473;28;20256;-73
2022/10/16 00:42:14;;;;;;;9.00;1.30;;;13.80;99.90;;;;;;4975517;28;20181;-74
2022/10/16 00:44:49;;;;;;;1.40;1.30;;;13.80;99.90;;;;;;5009508;28;20173;-72
2022/10/16 00:47:24;;;;;;;2.57;1.63;;;13.70;99.90;;;;;;4994813;28;20466;-74
2022/10/16 00:49:53;;;;;;;2.27;1.43;;;13.60;99.90;;;;;;4994676;28;20455;-73
2022/10/16 00:52:19;;;;;;;2.97;1.47;;;13.60;99.90;;;;;;4994683;28;20412;-72
2022/10/16 00:54:46;;;;;;;2.33;1.50;;;13.60;99.90;;;;;;4992424;28;20446;-73
2022/10/16 00:57:12;;;;;;;2.20;1.70;;;13.50;99.90;;;;;;4994518;28;20408;-73
2022/10/16 00:59:40;;;;;;;2.80;1.60;;;13.50;99.90;;;;;;4994393;28;20456;-73
2022/10/16 01:02:13;;;;;;;1.70;1.57;;;13.50;99.90;;;;;;4994574;28;20169;-73
2022/10/16 01:04:44;;;;;;;2.80;1.87;;;13.40;99.90;;;;;;4992622;28;20768;-72
2022/10/16 01:07:25;;;;;;;3.23;1.57;;;13.40;99.90;;;;;;4994072;28;20431;-72
2022/10/16 01:10:08;;;;;;;1.63;1.53;;;13.40;99.90;;;;;;4994340;28;20416;-73
2022/10/16 01:12:45;;;;;;;10.03;2.10;;;13.30;99.90;;;;;;4994371;28;20743;-73
2022/10/16 01:15:26;;;;;;;2.43;1.70;;;13.20;99.90;;;;;;4992018;28;20519;-73
2022/10/16 01:17:58;;;;;;;2.23;1.43;;;13.20;99.90;;;;;;4993986;28;20457;-75
2022/10/16 01:20:31;;;;;;;1.90;1.80;;;13.20;99.90;;;;;;4994003;28;20456;-75
2022/10/16 01:23:19;;;;;;;4.20;2.00;;;13.20;99.90;;;;;;4994132;28;20407;-74
2022/10/16 01:26:10;;;;;;;1.63;1.37;;;13.20;99.90;;;;;;4993743;28;20498;-74
2022/10/16 01:29:06;;;;;;;2.27;1.70;;;13.20;99.90;;;;;;4984088;28;20441;-73
2022/10/16 01:31:35;;;;;;;1.90;1.70;;;13.20;99.90;;;;;;4974660;28;20882;-74
2022/10/16 01:34:06;;;;;;;1.87;1.70;;;13.10;99.90;;;;;;4974620;28;20544;-74
2022/10/16 01:36:40;;;;;;;2.27;1.77;;;13.20;99.90;;;;;;4974230;28;20807;-73
2022/10/16 01:39:08;;;;;;;2.30;1.83;;;13.20;99.90;;;;;;4973414;28;20792;-73
2022/10/16 01:41:43;;;;;;;1.60;1.50;;;13.30;99.90;;;;;;4989925;28;20460;-73
2022/10/16 01:44:17;;;;;;;4.50;1.53;;;13.20;99.90;;;;;;4993657;28;20415;-74
2022/10/16 01:46:47;;;;;;;1.50;1.30;;;13.20;99.90;;;;;;4993787;28;20408;-74
2022/10/16 01:49:13;;;;;;;3.87;1.80;;;13.20;99.90;;;;;;4993396;28;20996;-73
2022/10/16 01:51:39;;;;;;;1.90;1.60;;;13.20;99.90;;;;;;4993839;28;20491;-74
2022/10/16 01:54:08;;;;;;;1.93;1.73;;;13.10;99.90;;;;;;4974402;28;20424;-74
2022/10/16 01:56:35;;;;;;;2.00;1.83;;;13.10;99.90;;;;;;4973927;28;20491;-74
2022/10/16 01:59:11;;;;;;;1.50;1.40;;;13.10;99.90;;;;;;4974928;28;20471;-74
2022/10/16 02:01:40;;;;;;;1.83;1.67;;;13.10;99.90;;;;;;4972798;28;20937;-74
2022/10/16 02:04:33;;;;;;;2.17;1.70;;;13.10;99.90;;;;;;5007676;28;20424;-73
2022/10/16 02:06:59;;;;;;;1.97;1.30;;;13.10;99.90;;;;;;4991747;28;20739;-74
2022/10/16 02:09:25;;;;;;;2.53;1.83;;;13.20;99.90;;;;;;4992159;28;20423;-74
2022/10/16 02:11:53;;;;;;;1.97;1.57;;;13.20;99.90;;;;;;4992079;28;20177;-73
2022/10/16 02:14:19;;;;;;;1.60;1.40;;;13.20;99.90;;;;;;4992844;28;20423;-73
2022/10/16 02:16:46;;;;;;;1.70;1.57;;;13.30;99.90;;;;;;4992493;28;20502;-74
2022/10/16 02:19:14;;;;;;;2.60;2.13;;;13.40;99.90;;;;;;4993005;28;20427;-73
2022/10/16 02:21:46;;;;;;;1.73;1.57;;;13.30;99.90;;;;;;4992826;28;20456;-74
2022/10/16 02:24:22;;;;;;;2.20;1.53;;;13.40;99.90;;;;;;4992984;28;20878;-72
2022/10/16 02:26:55;;;;;;;1.77;1.43;;;13.40;99.90;;;;;;4992996;28;20904;-73
2022/10/16 02:29:25;;;;;;;1.40;1.30;;;13.40;99.90;;;;;;4982040;28;20429;-74
2022/10/16 02:32:01;;;;;;;2.90;1.17;;;13.40;99.90;;;;;;4972247;28;20445;-75
2022/10/16 02:34:29;;;;;;;2.20;1.87;;;13.50;99.90;;;;;;4973179;28;20462;-72
2022/10/16 02:36:57;;;;;;;2.30;1.40;;;13.50;99.90;;;;;;4973477;28;20409;-73
2022/10/16 02:39:23;;;;;;;1.80;1.60;;;13.60;99.90;;;;;;4973535;28;20411;-73
2022/10/16 02:41:49;;;;;;;2.43;1.60;;;13.60;99.90;;;;;;4987239;28;20428;-75
2022/10/16 02:44:14;;;;;;;1.50;1.33;;;13.60;99.90;;;;;;4992580;28;20818;-72
2022/10/16 02:46:40;;;;;;;1.50;1.20;;;13.70;99.90;;;;;;4992639;28;20177;-74
2022/10/16 02:49:05;;;;;;;1.60;1.20;;;13.70;99.90;;;;;;4992508;28;20752;-74
2022/10/16 02:51:31;;;;;;;3.40;1.30;;;13.70;99.90;;;;;;4992456;28;20184;-73
2022/10/16 02:53:56;;;;;;;2.50;1.43;;;13.80;99.90;;;;;;4976676;28;20554;-73
2022/10/16 02:56:22;;;;;;;1.30;1.20;;;13.80;99.90;;;;;;4971592;28;20181;-74
2022/10/16 02:58:47;;;;;;;2.07;1.27;;;13.80;99.90;;;;;;4988054;28;20203;-73
2022/10/16 03:01:14;;;;;;;3.00;1.37;;;13.80;99.90;;;;;;4973120;28;20659;-72
2022/10/16 03:03:39;;;;;;;2.27;1.40;;;13.70;99.90;;;;;;4973247;28;20216;-74
2022/10/16 03:06:05;;;;;;;2.00;1.23;;;13.70;99.90;;;;;;4987837;28;20420;-73
2022/10/16 03:08:31;;;;;;;1.80;1.00;;;13.60;99.90;;;;;;4992521;28;20280;-74
2022/10/16 03:10:56;;;;;;;1.43;1.07;;;13.60;99.90;;;;;;4992444;28;20475;-73
2022/10/16 03:13:22;;;;;;;1.57;1.00;;;13.50;99.90;;;;;;4992341;28;20169;-73
2022/10/16 03:15:48;;;;;;;2.37;1.33;;;13.40;99.90;;;;;;4992164;28;20251;-75
2022/10/16 03:18:14;;;;;;;1.40;1.10;;;13.40;99.90;;;;;;4976858;28;20204;-73
2022/10/16 03:20:39;;;;;;;1.63;1.37;;;13.40;99.90;;;;;;4972898;28;20204;-74
2022/10/16 03:23:06;;;;;;;1.20;0.90;;;13.40;99.90;;;;;;4987785;28;20405;-74
2022/10/16 03:25:32;;;;;;;1.53;1.13;;;13.40;99.90;;;;;;4988703;28;20181;-72
2022/10/16 03:27:57;;;;;;;2.90;0.90;;;13.40;99.90;;;;;;4972915;28;20433;-74
2022/10/16 03:30:23;;;;;;;1.30;1.10;;;13.40;99.90;;;;;;4972848;28;20619;-74
2022/10/16 03:32:48;;;;;;;4.13;1.30;;;13.40;99.90;;;;;;4971503;28;20205;-73
2022/10/16 03:35:14;;;;;;;1.53;1.00;;;13.30;99.90;;;;;;4981506;28;20322;-74
2022/10/16 03:37:39;;;;;;;1.73;1.07;;;13.40;99.90;;;;;;4992381;28;20189;-74
2022/10/16 03:40:05;;;;;;;1.80;1.37;;;13.40;99.90;;;;;;4991232;28;20208;-73
2022/10/16 03:42:31;;;;;;;1.33;1.03;;;13.40;99.90;;;;;;4992167;28;20169;-72
2022/10/16 03:44:56;;;;;;;3.23;1.00;;;13.40;99.90;;;;;;4981677;28;20433;-75
2022/10/16 03:47:23;;;;;;;1.10;0.87;;;13.50;99.90;;;;;;4972672;28;20667;-73
2022/10/16 03:49:49;;;;;;;1.50;1.20;;;13.50;99.90;;;;;;4972641;28;20185;-73
2022/10/16 03:52:15;;;;;;;1.83;1.40;;;13.50;99.90;;;;;;4972791;28;20419;-73
2022/10/16 03:54:41;;;;;;;1.30;1.00;;;13.50;99.90;;;;;;4979855;28;20514;-72
2022/10/16 03:57:06;;;;;;;1.30;1.00;;;13.60;99.90;;;;;;4992068;28;20192;-73
2022/10/16 03:59:32;;;;;;;1.30;0.87;;;13.60;99.90;;;;;;4992081;28;20705;-73
2022/10/16 04:01:57;;;;;;;1.53;1.33;;;13.60;99.90;;;;;;4992085;28;20197;-73
2022/10/16 04:04:24;;;;;;;1.23;1.00;;;13.60;99.90;;;;;;4995417;28;20259;-73
2022/10/16 04:06:49;;;;;;;1.40;1.10;;;13.60;99.90;;;;;;4980116;28;20165;-73
2022/10/16 04:09:15;;;;;;;1.60;0.87;;;13.60;99.90;;;;;;4975924;28;20443;-73
2022/10/16 04:11:40;;;;;;;1.40;1.00;;;13.70;99.90;;;;;;4976049;28;20174;-73
2022/10/16 04:14:06;;;;;;;1.30;0.90;;;13.70;99.90;;;;;;4975869;28;20173;-73
2022/10/16 04:16:31;;;;;;;1.30;0.90;;;13.70;99.90;;;;;;4987940;28;20226;-72
2022/10/16 04:18:57;;;;;;;1.10;0.97;;;13.70;99.90;;;;;;4995130;28;20267;-73
2022/10/16 04:21:22;;;;;;;1.30;0.80;;;13.70;99.90;;;;;;4995250;28;20276;-73
2022/10/16 04:23:49;;;;;;;2.30;1.10;;;13.70;99.90;;;;;;4995237;28;20194;-73
2022/10/16 04:26:14;;;;;;;1.50;1.23;;;13.70;99.90;;;;;;4994919;28;20169;-72
2022/10/16 04:28:40;;;;;;;1.47;1.17;;;13.60;99.90;;;;;;4979114;28;20519;-74
2022/10/16 04:31:06;;;;;;;1.33;0.90;;;13.60;99.90;;;;;;4975564;28;20185;-75
2022/10/16 04:33:32;;;;;;;1.73;1.10;;;13.50;99.90;;;;;;4990506;28;20173;-73
2022/10/16 04:35:59;;;;;;;1.30;0.80;;;13.50;99.90;;;;;;4974843;28;20499;-73
2022/10/16 04:38:25;;;;;;;3.90;1.07;;;13.40;99.90;;;;;;4975370;28;20196;-73
2022/10/16 04:40:51;;;;;;;1.13;0.97;;;13.50;99.90;;;;;;4994275;28;20456;-74
2022/10/16 04:43:16;;;;;;;1.57;0.80;;;13.40;99.90;;;;;;4995034;28;20763;-73
2022/10/16 04:45:42;;;;;;;1.40;0.80;;;13.40;99.90;;;;;;4994753;28;20256;-74
2022/10/16 04:48:07;;;;;;;4.03;1.10;;;13.40;99.90;;;;;;4994883;28;20189;-74
2022/10/16 04:50:33;;;;;;;2.03;1.00;;;13.40;99.90;;;;;;4994296;28;20259;-73
2022/10/16 04:52:59;;;;;;;7.83;1.50;;;13.40;99.90;;;;;;4973998;28;20609;-74
2022/10/16 04:55:24;;;;;;;2.00;1.40;;;13.30;99.90;;;;;;4974976;28;20173;-73
2022/10/16 04:57:50;;;;;;;1.50;1.10;;;13.30;99.90;;;;;;4975207;28;20475;-74
2022/10/16 05:00:15;;;;;;;1.20;1.00;;;13.30;99.90;;;;;;4991100;28;20208;-74
2022/10/16 05:02:41;;;;;;;1.50;1.17;;;13.30;99.90;;;;;;4994686;28;20256;-73
2022/10/16 05:05:07;;;;;;;1.30;0.90;;;13.30;99.90;;;;;;4994177;28;20223;-72
2022/10/16 05:07:32;;;;;;;1.30;1.13;;;13.30;99.90;;;;;;4994391;28;20188;-73
2022/10/16 05:09:58;;;;;;;1.20;0.90;;;13.20;99.90;;;;;;4980685;28;20567;-74
2022/10/16 05:12:23;;;;;;;1.53;1.10;;;13.20;99.90;;;;;;4974930;28;20697;-74
2022/10/16 05:14:49;;;;;;;1.40;0.90;;;13.20;99.90;;;;;;4974381;28;20270;-72
2022/10/16 05:17:14;;;;;;;58.00;29.23;;;13.20;99.90;;;;;;4974765;28;20243;-72
2022/10/16 05:19:40;;;;;;;3.00;2.20;;;13.20;99.90;;;;;;4988190;28;20177;-73
2022/10/16 05:22:05;;;;;;;2.03;1.83;;;13.20;99.90;;;;;;4994146;28;20180;-72
2022/10/16 05:24:31;;;;;;;2.20;1.50;;;13.20;99.90;;;;;;4993815;28;20169;-73
2022/10/16 05:26:56;;;;;;;1.30;1.10;;;13.20;99.90;;;;;;4994100;28;20176;-73
2022/10/16 05:29:22;;;;;;;1.40;1.03;;;13.10;99.90;;;;;;4982664;28;20170;-72
2022/10/16 05:31:51;;;;;;;7.37;1.20;;;13.10;99.90;;;;;;4974477;28;20281;-74
2022/10/16 05:34:16;;;;;;;1.50;1.17;;;13.10;99.90;;;;;;4974192;28;20639;-73
2022/10/16 05:36:42;;;;;;;1.80;1.23;;;13.10;99.90;;;;;;4989462;28;20445;-74
2022/10/16 05:39:07;;;;;;;2.00;1.10;;;13.00;99.90;;;;;;4974325;28;20194;-74
2022/10/16 05:41:33;;;;;;;1.50;0.90;;;13.00;99.90;;;;;;4984232;28;20663;-73
2022/10/16 05:43:58;;;;;;;1.67;1.27;;;13.00;99.90;;;;;;4993380;28;20216;-73
2022/10/16 05:46:24;;;;;;;1.73;1.30;;;13.00;99.90;;;;;;4993433;28;20542;-73
2022/10/16 05:48:53;;;;;;;1.43;1.00;;;13.00;99.90;;;;;;4993523;28;20211;-73
2022/10/16 05:51:18;;;;;;;2.60;1.93;;;12.90;99.90;;;;;;4993573;28;20698;-73
2022/10/16 05:53:44;;;;;;;2.20;1.40;;;12.90;99.90;;;;;;4984056;28;20520;-73
2022/10/16 05:56:11;;;;;;;5.33;1.73;;;12.80;99.90;;;;;;4973832;28;20231;-73
2022/10/16 05:58:40;;;;;;;2.50;1.60;;;12.70;99.90;;;;;;4973890;28;20185;-73
2022/10/16 06:01:09;;;;;;;1.40;1.10;;;12.70;99.90;;;;;;4973913;28;20456;-73
2022/10/16 06:03:35;;;;;;;1.43;1.13;;;12.70;99.90;;;;;;4973996;28;20405;-73
2022/10/16 06:06:08;;;;;;;1.40;1.10;;;12.70;99.90;;;;;;4982762;28;20797;-73
2022/10/16 06:08:34;;;;;;;1.60;1.50;;;12.60;99.90;;;;;;4992045;28;20287;-74
2022/10/16 06:11:08;;;;;;;2.33;1.50;;;12.60;99.90;;;;;;4993209;28;20409;-73
2022/10/16 06:13:34;;;;;;;7.70;1.63;;;12.50;99.90;;;;;;4993199;28;20180;-73
2022/10/16 06:16:01;;;;;;;2.20;1.30;;;12.50;99.90;;;;;;4993010;28;20783;-74
2022/10/16 06:18:28;;;;;;;2.03;1.57;;;12.50;99.90;;;;;;4981633;28;20449;-74
2022/10/16 06:20:54;;;;;;;1.90;1.47;;;12.50;99.90;;;;;;4973733;28;20457;-74
2022/10/16 06:23:20;;;;;;;2.00;1.50;;;12.60;99.90;;;;;;4973795;28;20779;-74
2022/10/16 06:25:45;;;;;;;1.70;1.60;;;12.60;99.90;;;;;;4972840;28;20412;-74
2022/10/16 06:28:11;;;;;;;1.40;1.30;;;12.70;99.90;;;;;;4973465;28;20265;-73
2022/10/16 06:30:36;;;;;;;1.63;1.23;;;12.70;99.90;;;;;;4982749;28;20538;-74
2022/10/16 06:33:02;;;;;;;1.40;1.20;;;12.80;99.90;;;;;;4993001;28;20271;-73
2022/10/16 06:35:29;;;;;;;2.03;1.80;;;12.90;99.90;;;;;;4991486;28;20661;-72
2022/10/16 06:37:54;;;;;;;4.47;1.97;;;13.00;99.90;;;;;;4992782;28;20189;-73
2022/10/16 06:40:20;;;;;;;1.70;1.60;;;13.10;99.90;;;;;;4992789;28;20460;-72
2022/10/16 06:42:45;;;;;;;2.37;1.97;;;13.20;99.90;;;;;;4983628;28;20173;-73
2022/10/16 06:45:11;;;;;;;3.30;2.07;;;13.40;99.90;;;;;;4973059;28;20253;-73
2022/10/16 06:47:36;;;;;;;2.33;2.13;;;13.50;99.90;;;;;;4973293;28;20185;-74
2022/10/16 06:50:03;;;;;;;2.10;1.60;;;13.60;99.90;;;;;;4973231;28;20191;-74
2022/10/16 06:52:29;;;;;;;2.50;1.77;;;13.70;99.90;;;;;;4973382;28;20175;-74
2022/10/16 06:54:54;;;;;;;5.10;1.70;;;13.80;99.90;;;;;;4985256;28;20440;-74
2022/10/16 06:57:20;;;;;;;2.30;1.57;;;13.90;99.90;;;;;;4992541;28;20255;-73
2022/10/16 06:59:45;;;;;;;3.13;1.70;;;14.00;99.90;;;;;;4992537;28;20256;-74
2022/10/16 07:02:11;;;;;;;2.37;1.43;;;14.10;99.90;;;;;;4992727;28;20200;-74
2022/10/16 07:04:36;;;;;;;2.50;1.10;;;14.20;99.90;;;;;;4992427;28;20189;-74
2022/10/16 07:07:02;;;;;;;1.80;1.47;;;14.30;99.90;;;;;;4980492;28;20257;-73
2022/10/16 07:09:28;;;;;;;1.87;1.47;;;14.40;99.90;;;;;;4974226;28;20170;-74
2022/10/16 07:11:53;;;;;;;1.70;1.43;;;14.60;99.90;;;;;;4973126;28;20228;-75
2022/10/16 07:14:20;;;;;;;5.87;1.73;;;14.70;99.90;;;;;;4972700;28;20722;-74
2022/10/16 07:16:47;;;;;;;1.53;1.20;;;14.90;99.90;;;;;;4973261;28;20238;-75
2022/10/16 07:19:14;;;;;;;3.30;1.50;;;15.00;99.90;;;;;;4984400;28;20463;-74
2022/10/16 07:21:40;;;;;;;1.73;1.47;;;15.20;99.90;;;;;;4992489;28;20486;-73
2022/10/16 07:24:10;;;;;;;1.83;1.20;;;15.30;99.90;;;;;;4991253;28;20440;-73
2022/10/16 07:26:38;;;;;;;2.90;1.57;;;15.50;99.90;;;;;;4992269;28;20442;-73
2022/10/16 07:29:15;;;;;;;1.53;1.00;;;15.70;99.90;;;;;;4992407;28;20428;-72
2022/10/16 07:31:41;;;;;;;1.40;1.17;;;15.90;99.90;;;;;;4978501;28;20428;-72
2022/10/16 07:34:07;;;;;;;3.00;0.90;;;16.00;99.90;;;;;;4972884;28;20775;-74
2022/10/16 07:36:32;;;;;;;1.73;0.87;;;16.10;99.90;;;;;;4972698;28;20408;-74
2022/10/16 07:38:58;;;;;;;5.67;1.30;;;16.20;99.90;;;;;;4976095;28;20200;-74
2022/10/16 07:41:24;;;;;;;1.20;1.00;;;16.20;99.90;;;;;;4976468;28;20274;-74
2022/10/16 07:43:51;;;;;;;1.40;0.90;;;16.20;99.90;;;;;;4989126;28;20173;-73
2022/10/16 07:46:18;;;;;;;1.87;1.40;;;16.10;99.90;;;;;;4995647;28;20180;-74
2022/10/16 07:48:46;;;;;;;8.17;3.00;;;16.00;99.90;;;;;;4995688;28;20814;-73
2022/10/16 07:51:14;;;;;;;45.60;27.20;;;16.10;99.90;;;;;;4996005;28;20412;-74
2022/10/16 07:53:40;;;;;;;5.20;1.30;;;16.10;99.90;;;;;;4994570;28;20414;-71
2022/10/16 07:56:07;;;;;;;1.70;1.30;;;16.00;99.90;;;;;;4980982;28;20512;-73
2022/10/16 07:58:37;;;;;;;1.30;1.00;;;15.90;99.90;;;;;;4976165;28;20192;-73
2022/10/16 08:01:07;;;;;;;1.40;1.10;;;15.80;99.90;;;;;;4976201;28;20507;-73
2022/10/16 08:03:33;;;;;;;4.10;1.20;;;16.00;99.90;;;;;;4988359;28;20933;-73
2022/10/16 08:05:59;;;;;;;1.20;1.00;;;16.30;99.90;;;;;;4995434;28;20435;-74
2022/10/16 08:08:26;;;;;;;6.07;2.43;;;16.60;99.90;;;;;;4995443;28;20185;-73
2022/10/16 08:10:52;;;;;;;3.93;1.00;;;16.70;99.90;;;;;;4995656;28;20402;-75
2022/10/16 08:13:17;;;;;;;1.40;0.90;;;16.80;99.90;;;;;;4984666;28;20503;-74
2022/10/16 08:15:44;;;;;;;1.40;1.20;;;17.00;99.90;;;;;;4975757;28;20252;-75
2022/10/16 08:18:11;;;;;;;4.37;1.10;;;17.30;99.90;;;;;;4991025;28;20193;-74
2022/10/16 08:20:36;;;;;;;2.70;1.13;;;17.80;99.90;;;;;;4975956;28;20531;-74
2022/10/16 08:23:02;;;;;;;6.73;1.00;;;18.50;99.90;;;;;;4985596;28;20522;-74
2022/10/16 08:25:28;;;;;;;1.27;0.80;;;19.40;99.90;;;;;;4995008;28;20197;-74
2022/10/16 08:27:54;;;;;;;2.63;0.80;;;20.60;99.90;;;;;;4995346;28;20511;-74
2022/10/16 08:30:21;;;;;;;1.20;0.90;;;21.70;99.90;;;;;;4995230;28;20562;-74
2022/10/16 08:32:48;;;;;;;1.50;0.90;;;22.90;99.90;;;;;;4987010;28;20655;-72
2022/10/16 08:35:16;;;;;;;1.20;0.83;;;24.10;99.90;;;;;;4975319;28;20773;-74
2022/10/16 08:37:42;;;;;;;1.20;0.90;;;24.80;99.90;;;;;;4975559;28;20429;-74
2022/10/16 08:40:19;;;;;;;1.37;1.10;;;25.70;99.90;;;;;;4975289;28;20989;-74
2022/10/16 08:43:06;;;;;;;1.20;0.90;;;26.60;97.30;;;;;;4975598;28;20424;-74
2022/10/16 08:45:47;;;;;;;1.37;1.07;;;27.40;90.10;;;;;;4975199;28;20868;-74
2022/10/16 08:49:03;;;;;;;1.10;0.90;;;27.40;85.70;;;;;;4974907;28;20435;-74
2022/10/16 08:51:35;;;;;;;1.60;1.30;;;27.60;75.60;;;;;;4978968;28;20421;-74
2022/10/16 08:54:11;;;;;;;1.40;0.90;;;27.20;77.50;;;;;;4975241;28;20512;-74
2022/10/16 08:56:37;;;;;;;2.17;0.90;;;26.20;84.20;;;;;;4975054;28;20401;-75
2022/10/16 08:59:09;;;;;;;1.10;0.80;;;26.10;88.70;;;;;;4975098;28;20423;-75
2022/10/16 09:01:43;;;;;;;1.90;0.80;;;26.20;90.50;;;;;;4977895;28;20315;-75
2022/10/16 09:04:46;;;;;;;2.03;1.00;;;26.70;91.30;;;;;;4986135;28;20941;-74
2022/10/16 09:07:30;;;;;;;1.77;0.90;;;28.20;76.10;;;;;;4973730;28;20401;-73
2022/10/16 09:10:25;;;;;;;1.10;0.80;;;29.60;65.90;;;;;;4974976;28;20405;-74
2022/10/16 09:13:01;;;;;;;1.30;0.87;;;29.90;60.60;;;;;;4987755;28;20418;-75
2022/10/16 09:15:50;;;;;;;1.57;0.90;;;29.20;58.30;;;;;;4994078;28;20400;-73
2022/10/16 09:18:29;;;;;;;1.30;1.07;;;28.50;60.00;;;;;;4994329;28;20412;-73
2022/10/16 09:21:19;;;;;;;1.60;1.03;;;28.90;59.40;;;;;;4993972;28;20477;-73
2022/10/16 09:23:45;;;;;;;1.93;1.07;;;27.80;60.50;;;;;;4974657;28;20463;-74
2022/10/16 09:26:13;;;;;;;2.00;1.23;;;26.90;66.10;;;;;;4974475;28;20832;-74
2022/10/16 09:28:40;;;;;;;1.10;0.80;;;27.20;70.30;;;;;;4974853;28;20429;-75
2022/10/16 09:31:07;;;;;;;1.13;0.80;;;27.80;70.60;;;;;;4975243;28;20751;-75
2022/10/16 09:33:37;;;;;;;1.60;0.90;;;29.10;63.10;;;;;;4974621;28;20436;-74
2022/10/16 09:36:05;;;;;;;3.10;1.27;;;30.60;59.60;;;;;;4974130;28;20407;-71
2022/10/16 09:38:33;;;;;;;1.13;0.90;;;31.90;56.70;;;;;;4974365;28;20488;-74
2022/10/16 09:41:20;;;;;;;3.90;1.10;;;32.90;52.30;;;;;;4976267;28;20870;-71
2022/10/16 09:43:49;;;;;;;1.10;0.70;;;33.70;48.30;;;;;;4977255;28;20469;-72
2022/10/16 09:46:35;;;;;;;1.80;1.70;;;33.90;47.10;;;;;;5005249;28;20413;-74
2022/10/16 09:49:04;;;;;;;2.07;1.00;;;34.10;46.00;;;;;;4974171;28;20855;-71
2022/10/16 09:51:35;;;;;;;1.03;0.80;;;34.40;46.40;;;;;;4980215;28;20838;-72
2022/10/16 09:54:09;;;;;;;2.13;0.73;;;34.50;45.70;;;;;;4993565;28;20440;-71
2022/10/16 09:56:38;;;;;;;2.37;1.00;;;34.90;45.80;;;;;;4993354;28;20425;-72
2022/10/16 09:59:18;;;;;;;1.20;1.00;;;35.70;44.70;;;;;;4993857;28;20447;-72
2022/10/16 10:01:52;;;;;;;2.70;1.10;;;36.50;43.00;;;;;;4980734;28;20429;-71
2022/10/16 10:04:19;;;;;;;2.03;1.20;;;37.00;43.00;;;;;;4973709;28;20413;-73
2022/10/16 10:06:48;;;;;;;1.33;0.80;;;38.20;41.70;;;;;;4973954;28;20400;-72
2022/10/16 10:09:39;;;;;;;1.60;1.00;;;38.80;40.30;;;;;;4973842;28;20429;-71
2022/10/16 10:12:16;;;;;;;1.10;1.00;;;39.80;40.00;;;;;;4987010;28;20403;-73
2022/10/16 10:14:50;;;;;;;1.20;0.97;;;39.30;37.90;;;;;;4992990;28;20385;-73
2022/10/16 10:17:17;;;;;;;1.43;0.90;;;39.70;37.70;;;;;;4993249;28;20467;-72
2022/10/16 10:19:49;;;;;;;1.30;0.93;;;39.90;37.90;;;;;;4993105;28;20780;-71
2022/10/16 10:22:40;;;;;;;1.37;0.90;;;39.40;37.00;;;;;;4991856;28;20404;-72
2022/10/16 10:25:08;;;;;;;1.17;1.03;;;39.10;36.90;;;;;;4972265;28;20816;-71
2022/10/16 10:27:41;;;;;;;1.70;1.20;;;38.20;35.40;;;;;;4973574;28;20463;-73
2022/10/16 10:30:24;;;;;;;7.60;4.87;;;36.30;36.70;;;;;;4973477;28;20531;-73
2022/10/16 10:33:14;;;;;;;2.30;1.37;;;34.90;38.10;;;;;;4973497;28;20512;-70
2022/10/16 10:36:04;;;;;;;1.30;0.93;;;33.70;40.40;;;;;;4982904;28;20423;-70
2022/10/16 10:38:51;;;;;;;1.37;1.00;;;33.20;41.80;;;;;;4992768;28;20427;-71
2022/10/16 10:41:29;;;;;;;1.33;0.90;;;33.10;42.40;;;;;;4992789;28;20412;-71
2022/10/16 10:44:22;;;;;;;4.13;0.90;;;33.10;42.80;;;;;;4992830;28;20419;-72
2022/10/16 10:46:56;;;;;;;1.30;1.00;;;33.20;43.20;;;;;;4988764;28;20425;-73
2022/10/16 10:49:39;;;;;;;2.50;1.00;;;33.10;43.20;;;;;;4973340;28;20841;-73
2022/10/16 10:52:23;;;;;;;2.43;1.67;;;33.60;43.40;;;;;;4972954;28;20409;-73
2022/10/16 10:55:15;;;;;;;2.07;1.80;;;34.00;43.70;;;;;;5003936;28;20916;-73
2022/10/16 10:58:11;;;;;;;4.40;1.10;;;34.80;42.60;;;;;;4973031;28;20413;-71
2022/10/16 11:01:17;;;;;;;1.50;1.23;;;35.20;41.20;;;;;;4973206;28;20797;-72
2022/10/16 11:04:10;;;;;;;1.10;0.80;;;36.60;41.30;;;;;;4973184;28;20925;-71
2022/10/16 11:06:48;;;;;;;3.10;1.10;;;37.60;39.30;;;;;;4973068;28;20404;-72
2022/10/16 11:09:20;;;;;;;1.33;1.10;;;37.40;38.30;;;;;;4973344;28;20501;-72
2022/10/16 11:12:18;;;;;;;1.80;1.23;;;36.40;37.90;;;;;;4973537;28;20488;-72
2022/10/16 11:14:56;;;;;;;2.60;1.00;;;35.20;38.90;;;;;;4976905;28;20420;-71
2022/10/16 11:17:33;;;;;;;2.40;1.10;;;34.80;39.50;;;;;;4977062;28;20431;-72
2022/10/16 11:20:22;;;;;;;1.33;1.00;;;34.20;40.70;;;;;;4993178;28;21008;-72
2022/10/16 11:23:10;;;;;;;1.30;0.90;;;34.20;41.20;;;;;;5001684;28;20424;-72
2022/10/16 11:25:36;;;;;;;2.30;1.00;;;35.20;40.90;;;;;;5007850;28;20440;-72
2022/10/16 11:28:16;;;;;;;2.03;1.30;;;35.80;40.10;;;;;;4976825;28;20457;-72
2022/10/16 11:30:44;;;;;;;1.20;0.83;;;35.60;39.80;;;;;;4976806;28;20197;-72
2022/10/16 11:33:35;;;;;;;1.17;0.90;;;36.50;40.00;;;;;;4978056;28;20487;-72
2022/10/16 11:36:05;;;;;;;1.60;1.40;;;38.00;37.70;;;;;;4995960;28;20382;-72
2022/10/16 11:38:57;;;;;;;2.03;1.57;;;38.80;37.10;;;;;;4996117;28;20430;-72
2022/10/16 11:41:26;;;;;;;1.30;0.90;;;38.80;34.80;;;;;;4996250;28;20744;-73
2022/10/16 11:44:13;;;;;;;3.10;1.10;;;39.40;36.30;;;;;;4996076;28;20486;-73
2022/10/16 11:46:42;;;;;;;1.13;0.90;;;40.80;35.80;;;;;;4980937;28;20923;-72
2022/10/16 11:49:18;;;;;;;1.70;1.10;;;41.50;33.10;;;;;;4976272;28;20539;-71
2022/10/16 11:51:55;;;;;;;1.10;0.97;;;41.20;32.80;;;;;;4976406;28;20562;-71
2022/10/16 11:54:35;;;;;;;1.37;1.20;;;40.90;32.00;;;;;;4976266;28;20839;-72
2022/10/16 11:57:09;;;;;;;1.20;1.00;;;39.80;32.50;;;;;;4979084;28;20439;-71
2022/10/16 12:00:01;;;;;;;1.40;1.00;;;38.10;33.50;;;;;;4995955;28;20411;-72
2022/10/16 12:02:52;;;;;;;1.00;0.80;;;38.30;34.40;;;;;;4993552;28;20522;-72
2022/10/16 12:05:52;;;;;;;1.53;1.30;;;38.30;34.90;;;;;;4989036;28;20414;-72
2022/10/16 12:08:18;;;;;;;1.40;0.90;;;37.50;34.90;;;;;;4995497;28;20434;-73
2022/10/16 12:10:46;;;;;;;4.20;1.10;;;36.50;36.30;;;;;;4984316;28;21001;-73
2022/10/16 12:13:33;;;;;;;1.87;0.93;;;35.20;36.00;;;;;;4993296;28;20208;-72
2022/10/16 12:16:22;;;;;;;1.50;0.90;;;33.90;37.90;;;;;;4995359;28;20458;-73
2022/10/16 12:18:48;;;;;;;1.30;0.97;;;32.70;39.00;;;;;;4985347;28;20452;-72
2022/10/16 12:21:16;;;;;;;2.07;1.00;;;32.10;40.80;;;;;;4990904;28;20471;-73
2022/10/16 12:23:50;;;;;;;1.20;0.83;;;31.80;41.60;;;;;;4993959;28;20466;-73
2022/10/16 12:26:27;;;;;;;1.50;0.83;;;31.80;42.00;;;;;;4993754;28;20444;-73
2022/10/16 12:28:54;;;;;;;1.43;0.80;;;31.40;41.90;;;;;;4994391;28;20444;-73
2022/10/16 12:31:21;;;;;;;1.77;0.90;;;31.30;42.70;;;;;;4994072;28;20887;-73
2022/10/16 12:34:04;;;;;;;2.17;0.90;;;31.40;42.40;;;;;;4993678;28;20416;-72
2022/10/16 12:36:32;;;;;;;1.23;0.90;;;30.80;42.20;;;;;;4994760;28;20448;-71
2022/10/16 12:38:59;;;;;;;3.00;0.83;;;30.40;42.90;;;;;;4994790;28;20519;-74
2022/10/16 12:41:35;;;;;;;1.50;0.70;;;30.10;43.50;;;;;;4994247;28;20443;-73
2022/10/16 12:44:02;;;;;;;1.93;0.93;;;30.00;44.80;;;;;;4993474;28;20435;-72
2022/10/16 12:46:32;;;;;;;2.37;0.93;;;30.40;45.80;;;;;;4993945;28;20431;-72
2022/10/16 12:49:21;;;;;;;2.93;1.40;;;31.70;46.20;;;;;;4994484;28;20439;-74
2022/10/16 12:51:46;;;;;;;2.73;1.70;;;32.80;43.70;;;;;;4994652;28;20443;-72
2022/10/16 12:54:42;;;;;;;1.00;0.80;;;33.30;42.70;;;;;;4992283;28;20448;-70
2022/10/16 12:57:08;;;;;;;4.13;1.10;;;33.50;42.30;;;;;;4993392;28;20185;-71
2022/10/16 12:59:36;;;;;;;1.37;0.80;;;33.40;40.80;;;;;;4994513;28;20823;-71
2022/10/16 13:02:23;;;;;;;1.10;0.80;;;32.80;41.20;;;;;;4994504;28;20195;-73
2022/10/16 13:05:15;;;;;;;1.10;0.70;;;32.40;41.30;;;;;;4992892;28;20446;-73